Time;durP1;ratioP1;P1;durP2;ratioP2;P2;SDS_P1;SDS_P2;PMS_P1;PMS_P2;Temp;Humidity;BMP_temperature;BMP_pressure;BME280_temperature;BME280_humidity;BME280_pressure;Samples;Min_cycle;Max_cycle;Signal;HPM_P1;HPM_P2
2021/10/03 00:01:34;;;;;;;0.47;0.47;;;;;;;27.13;34.58;95779.81;5011073;28;20033;-31
2021/10/03 00:04:00;;;;;;;0.70;0.55;;;;;;;27.15;34.55;95776.22;5030489;28;20107;-33
2021/10/03 00:06:25;;;;;;;0.60;0.60;;;;;;;27.14;34.58;95780.63;5028486;28;20025;-33
2021/10/03 00:08:51;;;;;;;0.77;0.63;;;;;;;27.15;34.61;95776.22;5032316;28;20550;-30
2021/10/03 00:11:16;;;;;;;0.70;0.70;;;;;;;27.15;34.54;95781.50;5031756;28;20040;-34
2021/10/03 00:13:42;;;;;;;0.40;0.40;;;;;;;27.13;34.59;95779.81;5027009;28;20500;-30
2021/10/03 00:16:07;;;;;;;0.60;0.55;;;;;;;27.15;34.50;95781.50;5025649;28;20029;-36
2021/10/03 00:18:33;;;;;;;0.68;0.60;;;;;;;27.13;34.55;95792.97;5031610;28;20036;-31
2021/10/03 00:20:58;;;;;;;0.70;0.60;;;;;;;27.13;34.46;95795.59;5031455;28;20029;-39
2021/10/03 00:23:24;;;;;;;1.85;0.70;;;;;;;27.15;34.66;95787.56;5034804;28;20325;-31
2021/10/03 00:25:49;;;;;;;0.95;0.60;;;;;;;27.13;34.59;95795.59;5018292;28;20033;-38
2021/10/03 00:28:15;;;;;;;0.60;0.60;;;;;;;27.15;34.58;95786.75;5029911;28;20033;-37
2021/10/03 00:30:40;;;;;;;0.60;0.60;;;;;;;27.13;34.47;95795.59;5035707;28;20055;-33
2021/10/03 00:33:06;;;;;;;0.60;0.60;;;;;;;27.13;34.51;95789.50;5030018;28;20061;-34
2021/10/03 00:35:32;;;;;;;0.80;0.60;;;;;;;27.13;34.56;95789.50;5032017;28;20033;-34
2021/10/03 00:37:59;;;;;;;1.00;0.90;;;;;;;27.13;34.57;95784.22;5030539;28;20032;-31
2021/10/03 00:40:26;;;;;;;0.60;0.60;;;;;;;27.14;34.51;95791.16;5033152;28;20114;-32
2021/10/03 00:42:51;;;;;;;0.50;0.50;;;;;;;27.12;34.57;95782.56;5048475;28;20055;-36
2021/10/03 00:45:17;;;;;;;0.80;0.70;;;;;;;27.12;34.57;95778.13;5039349;28;20031;-34
2021/10/03 00:47:42;;;;;;;0.60;0.60;;;;;;;27.12;34.50;95775.47;5031818;28;20017;-32
2021/10/03 00:50:08;;;;;;;0.63;0.60;;;;;;;27.12;34.48;95772.03;5039303;28;20021;-32
2021/10/03 00:52:33;;;;;;;0.85;0.60;;;;;;;27.12;34.56;95767.59;5031139;28;20036;-32
2021/10/03 00:54:59;;;;;;;0.50;0.50;;;;;;;27.12;34.54;95758.88;5029633;28;20021;-34
2021/10/03 00:57:25;;;;;;;0.50;0.50;;;;;;;27.13;34.56;95766.66;5030773;28;20400;-37
2021/10/03 00:59:50;;;;;;;0.52;0.52;;;;;;;27.11;34.63;95760.66;5033318;28;20040;-34
2021/10/03 01:02:15;;;;;;;0.60;0.60;;;;;;;27.12;34.59;95757.06;5016894;28;20031;-32
2021/10/03 01:04:41;;;;;;;0.65;0.65;;;;;;;27.12;34.64;95751.00;5029933;28;20025;-36
2021/10/03 01:07:06;;;;;;;1.10;0.60;;;;;;;27.12;34.62;95736.03;5031284;28;20029;-38
2021/10/03 01:09:32;;;;;;;0.85;0.80;;;;;;;27.12;34.51;95735.22;5031206;28;20025;-33
2021/10/03 01:11:57;;;;;;;0.77;0.70;;;;;;;27.11;34.60;95734.38;5031493;28;20067;-32
2021/10/03 01:14:23;;;;;;;0.73;0.73;;;;;;;27.12;34.57;95736.03;5033881;28;20028;-34
2021/10/03 01:16:48;;;;;;;0.40;0.40;;;;;;;27.11;34.57;95723.84;5010102;28;20427;-34
2021/10/03 01:19:14;;;;;;;0.80;0.70;;;;;;;27.12;34.56;95732.59;5028047;28;20071;-32
2021/10/03 01:21:41;;;;;;;0.60;0.60;;;;;;;27.10;34.53;95735.34;5031847;28;20078;-33
2021/10/03 01:24:07;;;;;;;0.52;0.52;;;;;;;27.11;34.50;95730.88;5029183;28;20025;-37
2021/10/03 01:26:32;;;;;;;0.70;0.60;;;;;;;27.11;34.54;95730.88;5027167;28;20060;-33
2021/10/03 01:28:58;;;;;;;0.55;0.55;;;;;;;27.10;34.49;95724.81;5031887;28;20491;-34
2021/10/03 01:31:24;;;;;;;0.50;0.50;;;;;;;27.10;34.61;95719.56;5031606;28;20197;-37
2021/10/03 01:33:50;;;;;;;0.60;0.60;;;;;;;27.11;34.50;95715.97;5030823;28;20116;-31
2021/10/03 01:36:15;;;;;;;0.60;0.60;;;;;;;27.10;34.59;95727.44;5033153;28;20040;-34
2021/10/03 01:38:40;;;;;;;0.60;0.60;;;;;;;27.10;34.49;95721.34;5031550;28;20080;-34
2021/10/03 01:41:06;;;;;;;0.68;0.68;;;;;;;27.10;34.50;95714.28;5033393;28;20132;-33
2021/10/03 01:43:32;;;;;;;0.60;0.60;;;;;;;27.10;34.62;95716.94;5031921;28;20043;-32
2021/10/03 01:45:57;;;;;;;0.45;0.45;;;;;;;27.10;34.47;95711.66;5031314;28;20037;-33
2021/10/03 01:48:23;;;;;;;0.50;0.50;;;;;;;27.10;34.52;95705.56;5030740;28;20199;-34
2021/10/03 01:50:50;;;;;;;0.50;0.50;;;;;;;27.10;34.59;95700.31;5030592;28;20089;-38
2021/10/03 01:53:35;;;;;;;1.05;0.70;;;;;;;27.06;34.67;95683.94;5029411;28;20064;-38
2021/10/03 01:56:01;;;;;;;0.50;0.50;;;;;;;27.10;34.54;95698.53;5029754;28;20040;-30
2021/10/03 01:58:30;;;;;;;0.47;0.47;;;;;;;27.09;34.63;95694.22;5031481;28;20550;-36
2021/10/03 02:01:07;;;;;;;0.82;0.60;;;;;;;27.08;34.67;95695.16;5034966;28;20036;-33
2021/10/03 02:03:32;;;;;;;0.60;0.60;;;;;;;27.08;34.49;95703.03;5029611;28;20052;-33
2021/10/03 02:05:57;;;;;;;0.50;0.50;;;;;;;27.08;34.46;95692.53;5030807;28;20498;-30
2021/10/03 02:08:23;;;;;;;0.55;0.55;;;;;;;27.07;34.52;95696.13;5028069;28;20028;-34
2021/10/03 02:10:49;;;;;;;0.60;0.60;;;;;;;27.07;34.49;95690.84;5027951;28;20071;-32
2021/10/03 02:13:15;;;;;;;0.63;0.63;;;;;;;27.08;34.52;95684.63;5026885;28;20086;-33
2021/10/03 02:15:42;;;;;;;0.40;0.40;;;;;;;27.08;34.51;95692.53;5025637;28;20025;-33
2021/10/03 02:18:09;;;;;;;0.75;0.75;;;;;;;27.08;34.54;95687.25;5028668;28;20029;-39
2021/10/03 02:20:34;;;;;;;1.35;0.60;;;;;;;27.07;34.51;95675.06;5029025;28;20676;-32
2021/10/03 02:23:02;;;;;;;0.60;0.60;;;;;;;27.08;34.51;95676.75;5012322;28;20053;-35
2021/10/03 02:25:28;;;;;;;1.13;0.60;;;;;;;27.07;34.62;95675.06;5028734;28;20032;-38
2021/10/03 02:27:53;;;;;;;0.52;0.52;;;;;;;27.08;34.63;95668.84;5029550;28;20309;-33
2021/10/03 02:30:18;;;;;;;0.60;0.60;;;;;;;27.08;34.41;95668.03;5031158;28;20041;-36
2021/10/03 02:32:44;;;;;;;0.52;0.52;;;;;;;27.08;34.66;95671.47;5029145;28;20518;-37
2021/10/03 02:35:10;;;;;;;0.63;0.63;;;;;;;27.09;34.67;95667.06;5025313;28;20049;-32
2021/10/03 02:37:36;;;;;;;0.50;0.50;;;;;;;27.08;34.46;95670.66;5030126;28;20036;-35
2021/10/03 02:40:01;;;;;;;0.50;0.50;;;;;;;27.07;34.54;95664.56;5032073;28;20170;-34
2021/10/03 02:42:27;;;;;;;0.50;0.50;;;;;;;27.07;34.63;95659.31;5030760;28;20033;-38
2021/10/03 02:44:52;;;;;;;0.60;0.60;;;;;;;27.07;34.58;95659.31;5028344;28;20022;-39
2021/10/03 02:47:18;;;;;;;0.50;0.50;;;;;;;27.07;34.55;95654.03;5029002;28;20028;-37
2021/10/03 02:49:44;;;;;;;0.68;0.60;;;;;;;27.08;34.54;95660.16;5031332;28;20040;-34
2021/10/03 02:52:09;;;;;;;0.82;0.60;;;;;;;27.08;34.55;95658.34;5041769;28;20037;-36
2021/10/03 02:54:36;;;;;;;0.50;0.50;;;;;;;27.08;34.51;95649.63;5031576;28;20491;-30
2021/10/03 02:57:02;;;;;;;0.52;0.52;;;;;;;27.08;34.53;95644.38;5029018;28;20021;-33
2021/10/03 02:59:27;;;;;;;0.47;0.47;;;;;;;27.07;34.52;95635.63;5027615;28;20067;-35
2021/10/03 03:01:53;;;;;;;0.80;0.60;;;;;;;27.07;34.51;95640.03;5030363;28;20033;-34
2021/10/03 03:04:18;;;;;;;0.50;0.50;;;;;;;27.06;34.58;95647.13;5030084;28;20029;-35
2021/10/03 03:06:44;;;;;;;0.52;0.52;;;;;;;27.07;34.58;95630.38;5027581;28;20021;-34
2021/10/03 03:09:09;;;;;;;0.50;0.50;;;;;;;27.06;34.52;95639.22;5027043;28;20126;-33
2021/10/03 03:11:34;;;;;;;0.50;0.50;;;;;;;27.06;34.58;95631.34;5032133;28;20379;-37
2021/10/03 03:14:00;;;;;;;0.70;0.50;;;;;;;27.07;34.57;95633.00;5029079;28;20033;-33
2021/10/03 03:16:25;;;;;;;0.52;0.50;;;;;;;27.06;34.55;95627.88;5025582;28;20040;-34
2021/10/03 03:18:50;;;;;;;0.50;0.50;;;;;;;27.05;34.52;95637.56;5028750;28;20434;-38
2021/10/03 03:21:16;;;;;;;0.50;0.50;;;;;;;27.05;34.53;95618.31;5029199;28;20040;-33
2021/10/03 03:23:41;;;;;;;0.70;0.70;;;;;;;27.06;34.55;95625.22;5026782;28;20029;-31
2021/10/03 03:26:07;;;;;;;0.70;0.70;;;;;;;27.06;34.74;95626.06;5033919;28;20570;-38
2021/10/03 03:28:32;;;;;;;2.15;0.68;;;;;;;27.06;34.56;95628.72;5028944;28;20029;-38
2021/10/03 03:30:58;;;;;;;0.43;0.43;;;;;;;27.06;34.56;95618.19;5026532;28;20048;-37
2021/10/03 03:33:23;;;;;;;0.40;0.40;;;;;;;27.05;34.57;95626.19;5027753;28;20032;-36
2021/10/03 03:35:49;;;;;;;0.40;0.40;;;;;;;27.05;34.44;95616.53;5030567;28;20033;-31
2021/10/03 03:38:14;;;;;;;0.50;0.50;;;;;;;27.05;34.56;95619.16;5026785;28;20029;-37
2021/10/03 03:40:39;;;;;;;0.60;0.60;;;;;;;27.06;34.62;95619.97;5028409;28;20437;-37
2021/10/03 03:43:05;;;;;;;0.52;0.52;;;;;;;27.05;34.50;95611.25;5026945;28;20075;-35
2021/10/03 03:45:30;;;;;;;0.60;0.60;;;;;;;27.05;34.43;95623.56;5026990;28;20593;-32
2021/10/03 03:47:56;;;;;;;0.50;0.50;;;;;;;27.06;34.53;95625.22;5026481;28;20036;-33
2021/10/03 03:50:21;;;;;;;0.50;0.50;;;;;;;27.05;34.47;95624.41;5029874;28;20025;-36
2021/10/03 03:52:47;;;;;;;0.73;0.63;;;;;;;27.05;34.53;95608.63;5028713;28;20036;-34
2021/10/03 03:55:12;;;;;;;0.50;0.50;;;;;;;27.06;34.50;95622.59;5029209;28;20471;-31
2021/10/03 03:57:38;;;;;;;0.50;0.50;;;;;;;27.06;34.57;95627.88;5026012;28;20025;-34
2021/10/03 04:00:04;;;;;;;0.55;0.55;;;;;;;27.04;34.58;95622.72;5028584;28;20118;-34
2021/10/03 04:02:31;;;;;;;0.60;0.50;;;;;;;27.04;34.66;95614.00;5031288;28;20018;-36
2021/10/03 04:04:57;;;;;;;0.40;0.40;;;;;;;27.04;34.55;95621.91;5029577;28;20419;-33
2021/10/03 04:07:23;;;;;;;0.55;0.50;;;;;;;27.04;34.51;95600.88;5025690;28;20139;-34
2021/10/03 04:09:49;;;;;;;0.43;0.43;;;;;;;27.03;34.46;95589.50;5028241;28;20025;-38
2021/10/03 04:12:14;;;;;;;1.20;0.70;;;;;;;27.04;34.52;95606.94;5027410;28;20781;-34
2021/10/03 04:14:40;;;;;;;0.60;0.60;;;;;;;27.03;34.59;95594.75;5029826;28;20091;-35
2021/10/03 04:17:06;;;;;;;0.50;0.50;;;;;;;27.03;34.43;95604.44;5023996;28;20430;-37
2021/10/03 04:19:31;;;;;;;0.65;0.60;;;;;;;27.04;34.46;95595.59;5028420;28;20086;-34
2021/10/03 04:21:56;;;;;;;0.47;0.47;;;;;;;27.04;34.44;95595.59;5028798;28;20793;-34
2021/10/03 04:24:22;;;;;;;0.52;0.50;;;;;;;27.04;34.52;95606.13;5029550;28;20039;-32
2021/10/03 04:26:47;;;;;;;0.80;0.50;;;;;;;27.02;34.47;95606.22;5027853;28;20025;-34
2021/10/03 04:29:13;;;;;;;0.40;0.40;;;;;;;27.03;34.63;95613.16;5026906;28;20594;-34
2021/10/03 04:31:38;;;;;;;0.70;0.60;;;;;;;27.03;34.52;95592.13;5023936;28;20083;-35
2021/10/03 04:34:04;;;;;;;0.70;0.65;;;;;;;27.03;34.59;95607.91;5028397;28;20029;-36
2021/10/03 04:36:29;;;;;;;0.50;0.50;;;;;;;27.02;34.56;95590.47;5026530;28;20072;-33
2021/10/03 04:38:56;;;;;;;0.47;0.47;;;;;;;27.03;34.49;95589.50;5028899;28;20029;-37
2021/10/03 04:41:21;;;;;;;0.50;0.50;;;;;;;27.03;34.49;95591.31;5029740;28;20507;-36
2021/10/03 04:43:46;;;;;;;0.70;0.50;;;;;;;27.03;34.46;95594.75;5025848;28;20049;-36
2021/10/03 04:46:12;;;;;;;0.68;0.68;;;;;;;27.02;34.51;95577.31;5029221;28;20032;-31
2021/10/03 04:48:38;;;;;;;0.95;0.50;;;;;;;27.02;34.47;95582.56;5026682;28;20707;-33
2021/10/03 04:51:03;;;;;;;0.40;0.40;;;;;;;27.03;34.49;95589.50;5029702;28;20690;-32
2021/10/03 04:53:28;;;;;;;0.63;0.60;;;;;;;27.02;34.57;95579.09;5026332;28;20037;-39
2021/10/03 04:55:54;;;;;;;0.63;0.60;;;;;;;27.02;34.46;95587.84;5029597;28;20064;-36
2021/10/03 04:58:19;;;;;;;0.60;0.60;;;;;;;27.01;34.51;95580.91;5025217;28;20037;-35
2021/10/03 05:00:45;;;;;;;0.63;0.63;;;;;;;27.02;34.51;95587.84;5026151;28;20033;-35
2021/10/03 05:03:10;;;;;;;0.57;0.57;;;;;;;27.01;34.47;95575.66;5033982;28;20285;-34
2021/10/03 05:05:36;;;;;;;0.57;0.57;;;;;;;27.00;34.53;95579.22;5034964;28;20430;-33
2021/10/03 05:08:02;;;;;;;0.50;0.50;;;;;;;27.00;34.48;95587.09;5030794;28;20048;-28
2021/10/03 05:10:28;;;;;;;0.50;0.50;;;;;;;27.01;34.63;95596.69;5032013;28;20440;-32
2021/10/03 05:12:53;;;;;;;0.63;0.60;;;;;;;27.00;34.48;95594.97;5029509;28;20409;-34
2021/10/03 05:15:18;;;;;;;0.50;0.50;;;;;;;27.01;34.46;95601.94;5025655;28;20764;-33
2021/10/03 05:17:44;;;;;;;0.40;0.40;;;;;;;27.01;34.34;95596.69;5031253;28;20020;-33
2021/10/03 05:20:10;;;;;;;0.45;0.45;;;;;;;27.00;34.54;95594.97;5031539;28;20084;-36
2021/10/03 05:22:35;;;;;;;0.52;0.52;;;;;;;27.01;34.47;95588.78;5030344;28;20033;-34
2021/10/03 05:25:01;;;;;;;0.47;0.47;;;;;;;27.01;34.45;95596.69;5028421;28;20046;-34
2021/10/03 05:27:28;;;;;;;0.88;0.50;;;;;;;27.00;34.53;95572.16;5030041;28;20025;-34
2021/10/03 05:29:53;;;;;;;0.50;0.50;;;;;;;27.01;34.50;95591.41;5030154;28;20454;-37
2021/10/03 05:32:18;;;;;;;0.60;0.60;;;;;;;27.01;34.51;95596.69;5032625;28;20071;-35
2021/10/03 05:34:44;;;;;;;0.50;0.50;;;;;;;27.01;34.48;95562.50;5029409;28;20033;-35
2021/10/03 05:37:09;;;;;;;0.63;0.57;;;;;;;27.00;34.53;95573.94;5032316;28;20037;-37
2021/10/03 05:39:35;;;;;;;0.50;0.50;;;;;;;27.00;34.48;95573.94;5033621;28;20029;-34
2021/10/03 05:42:00;;;;;;;0.70;0.70;;;;;;;27.00;34.47;95589.72;5029006;28;20036;-34
2021/10/03 05:44:26;;;;;;;0.35;0.35;;;;;;;27.00;34.42;95585.31;5030228;28;20120;-35
2021/10/03 05:46:51;;;;;;;0.45;0.45;;;;;;;27.00;34.49;95568.69;5032568;28;20965;-35
2021/10/03 05:49:16;;;;;;;0.60;0.60;;;;;;;27.00;34.48;95579.22;5030502;28;20033;-32
2021/10/03 05:51:42;;;;;;;0.50;0.50;;;;;;;27.00;34.48;95600.25;5029549;28;20032;-37
2021/10/03 05:54:08;;;;;;;0.50;0.50;;;;;;;26.99;34.68;95564.41;5029753;28;20546;-33
2021/10/03 05:56:35;;;;;;;0.50;0.50;;;;;;;26.98;34.42;95578.50;5030316;28;20097;-32
2021/10/03 05:59:01;;;;;;;0.40;0.40;;;;;;;26.99;34.54;95619.59;5030830;28;20024;-36
2021/10/03 06:01:28;;;;;;;0.55;0.55;;;;;;;26.98;34.47;95574.09;5030650;28;20052;-33
2021/10/03 06:03:54;;;;;;;0.80;0.80;;;;;;;26.98;34.48;95575.88;5029448;28;20109;-32
2021/10/03 06:06:19;;;;;;;0.95;0.65;;;;;;;26.98;34.39;95587.25;5028397;28;20038;-34
2021/10/03 06:08:45;;;;;;;0.77;0.68;;;;;;;27.00;34.53;95597.63;5027408;28;20333;-34
2021/10/03 06:11:10;;;;;;;0.70;0.70;;;;;;;27.00;34.37;95571.31;5031929;28;20586;-36
2021/10/03 06:13:36;;;;;;;0.50;0.50;;;;;;;26.99;34.48;95578.41;5030337;28;20107;-33
2021/10/03 06:16:01;;;;;;;0.52;0.52;;;;;;;26.98;34.49;95592.50;5021946;28;20033;-34
2021/10/03 06:18:26;;;;;;;0.73;0.50;;;;;;;26.97;34.46;95568.94;5031444;28;20025;-38
2021/10/03 06:20:52;;;;;;;0.82;0.68;;;;;;;26.98;34.50;95583.75;5032149;28;20138;-37
2021/10/03 06:23:17;;;;;;;0.60;0.60;;;;;;;26.98;34.59;95594.28;5030509;28;20114;-32
2021/10/03 06:25:43;;;;;;;0.40;0.40;;;;;;;26.97;34.42;95590.81;5031604;28;20505;-32
2021/10/03 06:28:08;;;;;;;0.63;0.60;;;;;;;26.98;34.50;95581.13;5027070;28;20044;-34
2021/10/03 06:30:36;;;;;;;0.60;0.60;;;;;;;26.96;34.38;95573.38;5029325;28;20029;-36
2021/10/03 06:33:02;;;;;;;0.80;0.57;;;;;;;26.98;34.44;95612.69;5030478;28;20047;-34
2021/10/03 06:35:28;;;;;;;0.75;0.70;;;;;;;26.97;34.56;95579.47;5025743;28;20036;-33
2021/10/03 06:37:54;;;;;;;1.02;0.63;;;;;;;26.98;34.56;95586.38;5027713;28;20032;-33
2021/10/03 06:40:19;;;;;;;0.60;0.60;;;;;;;26.98;34.44;95596.91;5027501;28;20028;-37
2021/10/03 06:42:45;;;;;;;0.55;0.55;;;;;;;26.98;34.57;95575.88;5030927;28;20029;-36
2021/10/03 06:45:10;;;;;;;0.70;0.70;;;;;;;26.98;34.50;95594.28;5030506;28;20391;-36
2021/10/03 06:47:35;;;;;;;0.45;0.45;;;;;;;26.98;34.48;95579.34;5030907;28;20029;-38
2021/10/03 06:50:02;;;;;;;0.70;0.70;;;;;;;26.98;34.45;95584.63;5031195;28;20036;-35
2021/10/03 06:52:27;;;;;;;0.60;0.60;;;;;;;26.98;34.59;95581.97;5028480;28;20017;-32
2021/10/03 06:54:53;;;;;;;0.52;0.52;;;;;;;26.98;34.34;95597.75;5026615;28;20033;-36
2021/10/03 06:57:18;;;;;;;0.63;0.57;;;;;;;26.99;34.57;95609.09;5029888;28;20037;-31
2021/10/03 06:59:43;;;;;;;0.60;0.60;;;;;;;26.99;34.60;95580.16;5027777;28;20026;-35
2021/10/03 07:02:22;;;;;;;0.50;0.50;;;;;;;26.99;34.50;95577.53;5029674;28;20135;-33
2021/10/03 07:04:48;;;;;;;0.47;0.47;;;;;;;26.99;34.59;95603.84;5030164;28;20433;-34
2021/10/03 07:07:13;;;;;;;0.50;0.50;;;;;;;27.00;34.59;95594.97;5028768;28;20044;-32
2021/10/03 07:09:38;;;;;;;1.08;0.50;;;;;;;26.99;34.61;95601.19;5027897;28;20021;-35
2021/10/03 07:12:04;;;;;;;0.40;0.40;;;;;;;27.00;34.61;95594.97;5028326;28;20028;-34
2021/10/03 07:14:29;;;;;;;0.57;0.50;;;;;;;26.98;34.66;95594.28;5027806;28;20217;-32
2021/10/03 07:16:55;;;;;;;0.60;0.60;;;;;;;27.00;34.54;95605.50;5026626;28;20596;-34
2021/10/03 07:19:20;;;;;;;0.60;0.60;;;;;;;26.98;34.66;95597.75;5034548;28;20045;-35
2021/10/03 07:21:46;;;;;;;0.50;0.50;;;;;;;27.00;34.61;95608.13;5029985;28;20163;-34
2021/10/03 07:24:11;;;;;;;0.52;0.52;;;;;;;26.98;34.67;95607.44;5026282;28;20083;-32
2021/10/03 07:26:36;;;;;;;0.70;0.70;;;;;;;27.00;34.70;95610.75;5025364;28;20028;-34
2021/10/03 07:29:03;;;;;;;0.35;0.32;;;;;;;27.00;34.67;95613.38;5023559;28;20648;-36
2021/10/03 07:31:29;;;;;;;0.60;0.60;;;;;;;26.99;34.57;95607.31;5027664;28;20021;-30
2021/10/03 07:33:54;;;;;;;0.60;0.60;;;;;;;26.98;34.67;95608.28;5024093;28;20025;-34
2021/10/03 07:36:20;;;;;;;0.52;0.52;;;;;;;27.00;34.67;95626.53;5027978;28;20095;-34
2021/10/03 07:38:46;;;;;;;0.57;0.50;;;;;;;27.00;34.57;95600.25;5028648;28;20021;-31
2021/10/03 07:41:11;;;;;;;0.50;0.50;;;;;;;27.01;34.75;95609.81;5027702;28;20221;-33
2021/10/03 07:43:37;;;;;;;0.85;0.80;;;;;;;27.00;34.68;95606.34;5028404;28;20522;-36
2021/10/03 07:46:02;;;;;;;0.50;0.50;;;;;;;27.02;34.69;95598.34;5025780;28;20029;-35
2021/10/03 07:48:28;;;;;;;0.30;0.30;;;;;;;27.03;34.66;95605.28;5028958;28;20036;-37
2021/10/03 07:50:53;;;;;;;0.55;0.55;;;;;;;27.02;34.68;95603.59;5030223;28;20424;-29
2021/10/03 07:53:18;;;;;;;0.60;0.60;;;;;;;27.02;34.69;95606.22;5026226;28;20025;-36
2021/10/03 07:55:44;;;;;;;0.70;0.50;;;;;;;27.02;34.68;95592.25;5022093;28;20530;-32
2021/10/03 07:58:09;;;;;;;0.55;0.55;;;;;;;27.03;34.64;95599.19;5024658;28;20171;-34
2021/10/03 08:00:35;;;;;;;0.70;0.60;;;;;;;27.02;34.64;95586.97;5026330;28;20032;-31
2021/10/03 08:03:01;;;;;;;0.47;0.47;;;;;;;27.03;34.79;95584.25;5030832;28;20035;-31
2021/10/03 08:05:26;;;;;;;0.55;0.55;;;;;;;27.03;34.64;95610.53;5026762;28;20033;-32
2021/10/03 08:07:51;;;;;;;0.40;0.40;;;;;;;27.04;34.78;95582.47;5029066;28;20037;-35
2021/10/03 08:10:17;;;;;;;0.60;0.60;;;;;;;27.03;34.74;95589.50;5027637;28;20021;-34
2021/10/03 08:12:42;;;;;;;0.63;0.63;;;;;;;27.04;34.76;95601.69;5027437;28;20025;-30
2021/10/03 08:15:08;;;;;;;0.45;0.45;;;;;;;27.05;34.71;95592.00;5027607;28;20900;-32
2021/10/03 08:17:34;;;;;;;0.50;0.50;;;;;;;27.04;34.66;95601.69;5027054;28;20037;-36
2021/10/03 08:19:59;;;;;;;0.50;0.50;;;;;;;27.05;34.76;95594.63;5028516;28;20021;-29
2021/10/03 08:22:24;;;;;;;0.65;0.50;;;;;;;27.06;34.72;95598.94;5030125;28;20084;-37
2021/10/03 08:24:50;;;;;;;0.63;0.50;;;;;;;27.06;34.83;95606.81;5023439;28;20032;-34
2021/10/03 08:27:15;;;;;;;0.63;0.60;;;;;;;27.06;34.74;95593.69;5025704;28;20029;-34
2021/10/03 08:29:40;;;;;;;0.40;0.40;;;;;;;27.05;34.72;95606.00;5026099;28;20037;-34
2021/10/03 08:32:06;;;;;;;0.40;0.40;;;;;;;27.06;34.70;95615.56;5026807;28;20025;-37
2021/10/03 08:34:32;;;;;;;0.50;0.50;;;;;;;27.06;34.63;95606.81;5028527;28;20801;-34
2021/10/03 08:36:57;;;;;;;0.40;0.40;;;;;;;27.06;34.60;95605.03;5026298;28;20144;-30
2021/10/03 08:39:22;;;;;;;0.50;0.50;;;;;;;27.07;34.65;95624.28;5034228;28;20040;-34
2021/10/03 08:41:48;;;;;;;0.47;0.47;;;;;;;27.06;34.75;95605.03;5028129;28;20040;-34
2021/10/03 08:44:13;;;;;;;0.60;0.40;;;;;;;27.07;34.72;95617.22;5029770;28;20029;-33
2021/10/03 08:46:40;;;;;;;0.70;0.45;;;;;;;27.07;34.63;95627.75;5033786;28;20035;-33
2021/10/03 08:49:05;;;;;;;0.60;0.57;;;;;;;27.07;34.75;95611.13;5032773;28;20033;-35
2021/10/03 08:51:31;;;;;;;0.70;0.50;;;;;;;27.08;34.78;95628.59;5032673;28;20021;-38
2021/10/03 08:53:56;;;;;;;0.50;0.50;;;;;;;27.08;34.73;95621.53;5030055;28;20033;-34
2021/10/03 08:56:25;;;;;;;0.90;0.65;;;;;;;27.08;34.73;95613.63;5031772;28;20036;-30
2021/10/03 08:58:53;;;;;;;0.50;0.50;;;;;;;27.08;34.82;95625.97;5032681;28;20025;-37
2021/10/03 09:01:19;;;;;;;0.77;0.47;;;;;;;27.08;34.85;95600.50;5030037;28;20030;-33
2021/10/03 09:03:45;;;;;;;0.50;0.50;;;;;;;27.08;34.72;95597.88;5015496;28;20504;-36
2021/10/03 09:06:10;;;;;;;0.40;0.40;;;;;;;27.07;34.71;95596.19;5026436;28;20036;-31
2021/10/03 09:08:40;;;;;;;0.50;0.50;;;;;;;27.05;34.77;95595.50;5028319;28;20025;-33
2021/10/03 09:11:12;;;;;;;0.50;0.50;;;;;;;27.07;34.70;95590.94;5028265;28;20055;-37
2021/10/03 09:13:39;;;;;;;0.52;0.52;;;;;;;27.08;34.69;95595.22;5029766;28;20159;-36
2021/10/03 09:16:12;;;;;;;0.52;0.52;;;;;;;27.08;34.81;95595.22;5027029;28;20483;-34
2021/10/03 09:18:47;;;;;;;0.40;0.40;;;;;;;27.08;34.76;95589.16;5028771;28;20505;-37
2021/10/03 09:21:28;;;;;;;0.30;0.30;;;;;;;27.09;34.68;95591.66;5032067;28;20040;-34
2021/10/03 09:24:20;;;;;;;0.30;0.30;;;;;;;27.08;34.81;95595.22;5031113;28;20121;-36
2021/10/03 09:26:51;;;;;;;0.50;0.50;;;;;;;27.08;34.79;95597.88;5026412;28;20065;-37
2021/10/03 09:29:24;;;;;;;0.55;0.55;;;;;;;27.08;34.75;95597.88;5027913;28;20455;-30
2021/10/03 09:32:13;;;;;;;0.57;0.40;;;;;;;27.07;34.85;95601.44;5030404;28;20056;-34
2021/10/03 09:34:40;;;;;;;0.45;0.45;;;;;;;27.07;34.76;95609.34;5030515;28;20025;-35
2021/10/03 09:37:29;;;;;;;0.60;0.52;;;;;;;27.07;34.76;95590.94;5029490;28;20495;-33
2021/10/03 09:40:13;;;;;;;0.60;0.55;;;;;;;27.07;34.88;95601.44;5030576;28;20495;-33
2021/10/03 09:42:39;;;;;;;0.75;0.50;;;;;;;27.08;34.86;95618.06;5029473;28;20602;-31
2021/10/03 09:45:12;;;;;;;0.47;0.47;;;;;;;27.07;34.71;95605.88;5030381;28;20035;-34
2021/10/03 09:47:39;;;;;;;0.60;0.60;;;;;;;27.08;34.85;95613.63;5030310;28;20260;-36
2021/10/03 09:50:06;;;;;;;0.22;0.22;;;;;;;27.07;34.88;95616.38;5030239;28;20033;-31
2021/10/03 09:52:32;;;;;;;0.50;0.50;;;;;;;27.07;34.89;95606.72;5028793;28;20032;-33
2021/10/03 09:54:57;;;;;;;1.15;0.52;;;;;;;27.07;34.83;95596.19;5030732;28;20025;-33
2021/10/03 09:57:23;;;;;;;0.60;0.60;;;;;;;27.08;34.95;95616.25;5013210;28;20028;-31
2021/10/03 09:59:48;;;;;;;0.60;0.60;;;;;;;27.08;34.82;95613.63;5029152;28;20131;-31
2021/10/03 10:02:13;;;;;;;0.40;0.40;;;;;;;27.09;34.87;95610.06;5032559;28;20618;-33
2021/10/03 10:04:39;;;;;;;0.40;0.40;;;;;;;27.08;34.88;95611.00;5029512;28;20239;-34
2021/10/03 10:07:04;;;;;;;0.52;0.50;;;;;;;27.09;34.84;95615.34;5026091;28;20090;-31
2021/10/03 10:09:29;;;;;;;0.65;0.40;;;;;;;27.09;34.98;95620.59;5024722;28;20400;-34
2021/10/03 10:12:01;;;;;;;0.75;0.55;;;;;;;27.09;34.84;95625.84;5029691;28;20058;-35
2021/10/03 10:14:31;;;;;;;0.55;0.50;;;;;;;27.08;34.82;95616.25;5031599;28;20027;-33
2021/10/03 10:17:00;;;;;;;0.60;0.60;;;;;;;27.12;34.94;95616.88;5011907;28;20205;-37
2021/10/03 10:19:40;;;;;;;0.55;0.50;;;;;;;27.11;34.93;95613.41;5027060;28;20454;-32
2021/10/03 10:22:11;;;;;;;0.70;0.50;;;;;;;27.10;34.75;95611.75;5028783;28;20411;-35
2021/10/03 10:25:16;;;;;;;0.50;0.50;;;;;;;27.08;34.93;95600.50;5031197;28;20052;-33
2021/10/03 10:27:44;;;;;;;0.60;0.60;;;;;;;27.11;34.80;95629.19;5001389;28;20071;-33
2021/10/03 10:30:14;;;;;;;0.73;0.60;;;;;;;27.11;34.85;95602.91;5028459;28;20498;-35
2021/10/03 10:32:55;;;;;;;0.50;0.50;;;;;;;27.12;35.01;95619.53;5034048;28;20086;-32
2021/10/03 10:35:25;;;;;;;0.50;0.47;;;;;;;27.11;34.80;95602.91;5030693;28;20031;-33
2021/10/03 10:37:54;;;;;;;0.40;0.40;;;;;;;27.12;34.93;95616.88;5028466;28;20036;-34
2021/10/03 10:40:22;;;;;;;0.63;0.50;;;;;;;27.12;34.93;95622.97;5031294;28;20048;-34
2021/10/03 10:42:52;;;;;;;0.30;0.30;;;;;;;27.12;34.95;95598.47;5031342;28;20492;-34
2021/10/03 10:45:27;;;;;;;0.32;0.32;;;;;;;27.09;35.05;95604.81;5029453;28;20052;-32
2021/10/03 10:48:10;;;;;;;1.10;0.38;;;;;;;27.13;34.94;95614.16;5027003;28;20037;-35
2021/10/03 10:50:51;;;;;;;0.43;0.43;;;;;;;27.13;34.94;95595.75;5027497;28;20055;-34
2021/10/03 10:53:22;;;;;;;0.60;0.45;;;;;;;27.15;34.94;95602.66;5030488;28;20487;-31
2021/10/03 10:56:06;;;;;;;0.40;0.38;;;;;;;27.12;35.02;95594.03;5030723;28;20438;-38
2021/10/03 10:58:33;;;;;;;0.68;0.55;;;;;;;27.12;35.11;95599.31;5028514;28;20025;-35
2021/10/03 11:01:12;;;;;;;0.30;0.30;;;;;;;27.13;34.92;95611.50;5029705;28;20037;-34
2021/10/03 11:03:43;;;;;;;0.40;0.40;;;;;;;27.13;35.10;95608.88;5029263;28;20028;-39
2021/10/03 11:06:21;;;;;;;0.57;0.50;;;;;;;27.15;34.99;95592.16;5026675;28;20453;-29
2021/10/03 11:09:06;;;;;;;0.65;0.50;;;;;;;27.14;34.95;95601.81;5028956;28;20040;-31
2021/10/03 11:11:36;;;;;;;0.60;0.50;;;;;;;27.13;34.99;95595.75;5027451;28;20319;-31
2021/10/03 11:14:04;;;;;;;0.50;0.50;;;;;;;27.15;34.95;95602.66;5025526;28;20491;-34
2021/10/03 11:16:43;;;;;;;0.57;0.57;;;;;;;27.13;34.93;95601.00;5020961;28;20033;-32
2021/10/03 11:19:14;;;;;;;0.40;0.40;;;;;;;27.16;35.01;95593.81;5032205;28;20033;-36
2021/10/03 11:21:39;;;;;;;0.33;0.33;;;;;;;27.15;34.97;95587.69;5026312;28;20020;-32
2021/10/03 11:24:09;;;;;;;0.70;0.57;;;;;;;27.17;35.02;95598.09;5027705;28;20084;-36
2021/10/03 11:26:50;;;;;;;0.35;0.35;;;;;;;27.17;34.93;95595.47;5028019;28;20035;-30
2021/10/03 11:29:20;;;;;;;0.52;0.52;;;;;;;27.17;35.04;95590.22;5030469;28;20072;-35
2021/10/03 11:31:54;;;;;;;0.47;0.35;;;;;;;27.18;34.98;95581.38;5029124;28;20060;-34
2021/10/03 11:34:31;;;;;;;0.30;0.30;;;;;;;27.18;34.89;95576.94;5031895;28;20403;-30